Time;durP1;ratioP1;P1;durP2;ratioP2;P2;SDS_P1;SDS_P2;PMS_P1;PMS_P2;Temp;Humidity;BMP_temperature;BMP_pressure;BME280_temperature;BME280_humidity;BME280_pressure;Samples;Min_cycle;Max_cycle;Signal;HPM_P1;HPM_P2
2022/12/25 00:00:06;;;;;;;13.63;6.15;;;;;;;5.65;100.00;100838.25;5070404;28;20039;-69
2022/12/25 00:02:31;;;;;;;13.32;6.80;;;;;;;5.70;100.00;100830.84;5073233;28;20029;-72
2022/12/25 00:04:57;;;;;;;14.18;7.10;;;;;;;5.78;100.00;100820.63;5073956;28;20054;-73
2022/12/25 00:07:22;;;;;;;12.40;6.50;;;;;;;5.82;100.00;100817.72;5073609;28;20028;-69
2022/12/25 00:09:48;;;;;;;12.93;6.40;;;;;;;5.86;100.00;100805.06;5072814;28;20028;-68
2022/12/25 00:12:13;;;;;;;14.52;7.63;;;;;;;5.97;100.00;100805.28;5072467;28;20027;-69
2022/12/25 00:14:39;;;;;;;13.40;6.20;;;;;;;5.99;100.00;100804.22;5072539;28;20029;-68
2022/12/25 00:17:04;;;;;;;13.13;6.72;;;;;;;6.02;100.00;100817.34;5072206;28;20035;-70
2022/12/25 00:19:30;;;;;;;12.57;6.80;;;;;;;5.93;100.00;100817.91;5072376;28;20036;-68
2022/12/25 00:21:55;;;;;;;13.63;7.20;;;;;;;6.07;100.00;100851.69;5072113;28;20031;-69
2022/12/25 00:24:20;;;;;;;14.65;6.43;;;;;;;5.90;100.00;100823.41;5072211;28;20477;-69
2022/12/25 00:26:46;;;;;;;14.77;6.25;;;;;;;6.09;100.00;100840.00;5072167;28;20023;-69
2022/12/25 00:29:12;;;;;;;12.30;5.85;;;;;;;6.15;100.00;100858.25;5071219;28;20040;-70
2022/12/25 00:31:38;;;;;;;13.82;5.75;;;;;;;6.23;100.00;100858.63;5071061;28;20022;-69
2022/12/25 00:34:03;;;;;;;9.77;5.32;;;;;;;6.22;100.00;100864.03;5072384;28;20029;-72
2022/12/25 00:36:29;;;;;;;10.15;5.28;;;;;;;6.58;100.00;100886.59;5073150;28;20083;-73
2022/12/25 00:38:54;;;;;;;11.98;5.70;;;;;;;6.56;100.00;100887.66;5073073;28;20073;-73
2022/12/25 00:44:11;;;;;;;17.52;5.45;;;;;;;6.51;100.00;100882.63;5041440;28;20079;-73
2022/12/25 00:46:36;;;;;;;12.02;5.93;;;;;;;6.50;100.00;100883.59;5072930;28;20108;-73
2022/12/25 00:49:02;;;;;;;10.25;5.40;;;;;;;6.56;100.00;100890.34;5072873;28;20115;-73
2022/12/25 00:51:27;;;;;;;11.20;4.07;;;;;;;6.60;100.00;100890.06;5072992;28;20399;-72
2022/12/25 00:53:53;;;;;;;15.57;4.90;;;;;;;6.63;100.00;100894.31;5072820;28;20085;-73
2022/12/25 00:56:18;;;;;;;10.02;4.65;;;;;;;6.66;100.00;100884.34;5072811;28;20025;-72
2022/12/25 00:58:44;;;;;;;9.27;4.63;;;;;;;6.56;100.00;100858.34;5072064;28;20064;-74
2022/12/25 01:01:11;;;;;;;7.00;4.10;;;;;;;6.62;100.00;100879.28;5072833;28;20082;-73
2022/12/25 01:03:36;;;;;;;9.75;4.47;;;;;;;6.72;100.00;100902.63;5072500;28;20024;-73
2022/12/25 01:06:05;;;;;;;17.55;4.82;;;;;;;6.57;100.00;100878.72;5072702;28;20732;-73
2022/12/25 01:08:33;;;;;;;8.35;4.70;;;;;;;6.77;100.00;100913.84;5072786;28;20028;-73
2022/12/25 01:11:05;;;;;;;9.32;5.35;;;;;;;6.78;100.00;100910.19;5072475;28;20035;-72
2022/12/25 01:13:33;;;;;;;9.60;5.00;;;;;;;6.77;100.00;100908.50;5072463;28;20028;-73
2022/12/25 01:16:07;;;;;;;13.25;4.93;;;;;;;6.70;100.00;100892.97;5070068;28;20020;-73
2022/12/25 01:18:33;;;;;;;11.27;5.10;;;;;;;6.74;100.00;100903.34;5072514;28;20040;-73
2022/12/25 01:21:08;;;;;;;10.05;5.10;;;;;;;6.68;100.00;100892.25;5072159;28;20028;-73
2022/12/25 01:23:33;;;;;;;13.23;5.38;;;;;;;6.76;100.00;100904.13;5072434;28;20061;-73
2022/12/25 01:26:06;;;;;;;9.25;4.68;;;;;;;6.76;100.00;100901.47;5071963;28;20028;-72
2022/12/25 01:28:31;;;;;;;11.38;5.03;;;;;;;6.61;100.00;100885.59;5071133;28;20093;-69
2022/12/25 01:30:56;;;;;;;15.90;5.55;;;;;;;6.88;100.00;100910.50;5070592;28;20103;-70
2022/12/25 01:33:22;;;;;;;13.25;5.07;;;;;;;6.85;100.00;100906.22;5070721;28;20052;-70
2022/12/25 01:35:47;;;;;;;12.25;4.72;;;;;;;6.80;100.00;100894.97;5070622;28;20464;-69
2022/12/25 01:38:13;;;;;;;14.60;5.20;;;;;;;6.84;100.00;100909.81;5070506;28;20579;-69
2022/12/25 01:40:38;;;;;;;16.92;5.75;;;;;;;6.96;100.00;100908.19;5071223;28;20449;-73
2022/12/25 01:43:19;;;;;;;15.52;5.93;;;;;;;6.98;100.00;100901.81;5071923;28;20031;-72
2022/12/25 01:45:46;;;;;;;11.60;5.03;;;;;;;7.12;100.00;100906.25;5069011;28;20024;-72
2022/12/25 01:48:23;;;;;;;15.20;5.45;;;;;;;7.03;100.00;100882.84;5070730;28;20083;-73
2022/12/25 01:50:56;;;;;;;11.15;5.10;;;;;;;6.97;100.00;100891.25;5071423;28;20385;-73
2022/12/25 01:53:23;;;;;;;14.75;5.57;;;;;;;7.11;100.00;100891.22;5066013;28;20025;-72
2022/12/25 01:55:53;;;;;;;10.57;4.75;;;;;;;7.05;100.00;100904.94;5070863;28;20560;-72
2022/12/25 01:58:19;;;;;;;12.98;5.72;;;;;;;7.05;100.00;100907.59;5071340;28;20044;-73
2022/12/25 02:00:45;;;;;;;14.98;5.45;;;;;;;7.12;100.00;100916.91;5071054;28;20036;-73
2022/12/25 02:03:10;;;;;;;11.60;5.00;;;;;;;7.04;100.00;100909.41;5070984;28;20508;-73
2022/12/25 02:05:36;;;;;;;16.48;5.45;;;;;;;6.80;100.00;100889.66;5070929;28;20021;-72
2022/12/25 02:08:07;;;;;;;12.63;4.40;;;;;;;6.84;100.00;100899.16;5071090;28;20679;-72
2022/12/25 02:10:33;;;;;;;12.07;4.88;;;;;;;7.21;100.00;100918.13;5071042;28;20048;-72
2022/12/25 02:13:00;;;;;;;15.82;5.35;;;;;;;7.29;100.00;100924.72;5070816;28;20105;-74
2022/12/25 02:15:38;;;;;;;12.73;5.22;;;;;;;7.32;100.00;100921.00;5071063;28;20150;-73
2022/12/25 02:18:14;;;;;;;12.95;5.28;;;;;;;7.20;100.00;100911.97;5071019;28;20035;-73
2022/12/25 02:21:04;;;;;;;10.52;4.63;;;;;;;7.23;100.00;100911.78;5071280;28;20043;-74
2022/12/25 02:23:41;;;;;;;12.98;5.53;;;;;;;7.30;100.00;100917.56;5071147;28;20107;-72
2022/12/25 02:26:34;;;;;;;15.55;5.47;;;;;;;7.37;100.00;100924.19;5070911;28;20031;-74
2022/12/25 02:29:08;;;;;;;12.55;4.30;;;;;;;7.30;100.00;100914.88;5070984;28;20106;-74
2022/12/25 02:31:33;;;;;;;10.45;5.22;;;;;;;7.26;100.00;100916.03;5071405;28;20481;-73
2022/12/25 02:34:05;;;;;;;13.70;5.15;;;;;;;7.18;100.00;100929.00;5070608;28;20029;-69
2022/12/25 02:36:46;;;;;;;10.60;5.55;;;;;;;7.13;100.00;100928.47;5069906;28;20127;-70
2022/12/25 02:39:56;;;;;;;15.50;5.95;;;;;;;7.16;100.00;100925.59;5069807;28;20485;-70
2022/12/25 03:08:19;;;;;;;13.85;5.63;;;;;;;7.07;100.00;100947.50;5069782;28;20058;-69
2022/12/25 03:13:42;;;;;;;13.75;5.50;;;;;;;6.90;100.00;100951.22;5069815;28;20043;-70
2022/12/25 03:18:53;;;;;;;;;;;;;;;6.94;100.00;100961.63;5069888;28;20031;-69
2022/12/25 03:26:56;;;;;;;13.77;5.45;;;;;;;6.83;100.00;100952.56;5069048;28;20040;-68
2022/12/25 03:32:57;;;;;;;13.80;6.32;;;;;;;7.03;100.00;100972.69;5069781;28;20739;-69
2022/12/25 03:35:46;;;;;;;13.32;6.20;;;;;;;7.03;100.00;100972.69;5057982;28;20040;-70
2022/12/25 04:37:27;;;;;;;14.13;6.32;;;;;;;7.17;100.00;100989.53;5072010;28;20462;-69
2022/12/25 04:39:52;;;;;;;15.93;6.15;;;;;;;7.24;100.00;100995.31;5072083;28;20028;-69
2022/12/25 04:42:18;;;;;;;13.73;6.45;;;;;;;7.22;100.00;100998.06;5072069;28;20040;-69
2022/12/25 04:44:43;;;;;;;18.85;6.63;;;;;;;7.25;100.00;100994.38;5072173;28;20017;-69
2022/12/25 04:47:09;;;;;;;19.98;7.85;;;;;;;7.20;100.00;101000.00;5071835;28;20127;-69
2022/12/25 04:49:34;;;;;;;16.48;7.35;;;;;;;7.13;100.00;100995.13;5071944;28;20104;-70
2022/12/25 04:52:00;;;;;;;17.30;6.85;;;;;;;7.02;100.00;100986.97;5071583;28;20029;-69
2022/12/25 04:54:25;;;;;;;18.65;6.75;;;;;;;6.91;100.00;100983.13;5071794;28;20040;-69
2022/12/25 04:56:50;;;;;;;15.45;6.53;;;;;;;6.78;100.00;100965.34;5070146;28;20099;-67
2022/12/25 04:59:16;;;;;;;18.73;6.43;;;;;;;6.88;100.00;100970.03;5069346;28;20451;-68
2022/12/25 05:01:41;;;;;;;16.30;6.65;;;;;;;6.92;100.00;100970.66;5071153;28;20027;-69
2022/12/25 05:04:07;;;;;;;17.23;6.93;;;;;;;7.15;100.00;100994.09;5070690;28;20078;-69
2022/12/25 05:06:32;;;;;;;12.90;6.78;;;;;;;7.19;100.00;101000.94;5071136;28;20036;-68
2022/12/25 05:08:58;;;;;;;16.23;6.97;;;;;;;7.11;100.00;100991.69;5070308;28;20036;-68
2022/12/25 05:11:23;;;;;;;21.25;7.22;;;;;;;7.14;100.00;100997.72;5071648;28;20376;-69
2022/12/25 05:13:49;;;;;;;16.77;7.00;;;;;;;7.02;100.00;100987.81;5071182;28;20040;-69
2022/12/25 05:16:17;;;;;;;16.70;6.95;;;;;;;7.06;100.00;101004.47;5070571;28;20035;-69
2022/12/25 05:18:43;;;;;;;19.58;8.13;;;;;;;7.04;100.00;101007.25;5071684;28;20029;-69
2022/12/25 05:21:10;;;;;;;23.45;8.93;;;;;;;6.94;100.00;101004.28;5059382;28;20086;-69
2022/12/25 05:23:36;;;;;;;17.60;7.10;;;;;;;6.93;100.00;101018.56;5068879;28;20043;-69
2022/12/25 05:26:05;;;;;;;16.92;7.97;;;;;;;6.95;100.00;101014.00;5069393;28;20039;-68
2022/12/25 05:28:33;;;;;;;16.98;7.30;;;;;;;6.86;100.00;100998.56;5069430;28;20229;-68
2022/12/25 05:30:59;;;;;;;15.32;7.25;;;;;;;6.99;100.00;101002.19;5051633;28;20412;-69
2022/12/25 05:33:24;;;;;;;23.90;8.15;;;;;;;6.73;100.00;100976.28;5068300;28;20070;-69
2022/12/25 05:35:49;;;;;;;17.00;7.60;;;;;;;6.86;100.00;101001.25;5059181;28;20393;-70
2022/12/25 05:38:15;;;;;;;15.52;7.38;;;;;;;6.80;100.00;101004.28;5070023;28;20137;-70
2022/12/25 05:40:40;;;;;;;13.52;6.68;;;;;;;6.79;100.00;100996.38;5069880;28;20029;-69
2022/12/25 05:43:06;;;;;;;14.10;6.90;;;;;;;6.62;100.00;100988.56;5069572;28;20039;-70
2022/12/25 05:45:32;;;;;;;14.60;7.18;;;;;;;6.75;100.00;101022.34;5069909;28;20560;-70
2022/12/25 05:47:57;;;;;;;15.00;7.40;;;;;;;6.67;100.00;101018.44;5070773;28;20048;-73
2022/12/25 05:50:23;;;;;;;15.60;6.25;;;;;;;6.45;100.00;100992.22;5071472;28;20020;-73
2022/12/25 05:52:48;;;;;;;17.65;7.53;;;;;;;6.39;100.00;100978.44;5070821;28;20161;-74
2022/12/25 05:55:13;;;;;;;14.25;7.65;;;;;;;6.56;100.00;101020.91;5071206;28;20124;-75
2022/12/25 05:57:39;;;;;;;18.63;8.52;;;;;;;6.49;100.00;101022.22;5070930;28;20050;-73
2022/12/25 06:00:05;;;;;;;17.98;8.85;;;;;;;6.20;100.00;100984.03;5070569;28;20085;-74
2022/12/25 06:02:31;;;;;;;21.10;9.25;;;;;;;6.36;100.00;101015.91;5069669;28;20028;-69
2022/12/25 06:04:56;;;;;;;20.70;9.90;;;;;;;6.21;100.00;101009.69;5069263;28;20085;-68
2022/12/25 06:07:22;;;;;;;18.13;9.60;;;;;;;6.05;100.00;100987.56;5069312;28;20028;-74
2022/12/25 06:09:47;;;;;;;18.55;10.32;;;;;;;6.11;100.00;101019.16;5070495;28;20040;-74
2022/12/25 06:12:13;;;;;;;21.63;10.93;;;;;;;6.02;100.00;101025.03;5069776;28;20044;-74
2022/12/25 06:14:38;;;;;;;20.65;10.27;;;;;;;6.01;100.00;101030.44;5069366;28;20110;-74
2022/12/25 06:17:04;;;;;;;20.52;10.10;;;;;;;5.95;100.00;101038.78;5068598;28;20860;-74
2022/12/25 06:19:29;;;;;;;21.35;9.77;;;;;;;5.90;100.00;101046.19;5069049;28;20035;-73
2022/12/25 06:21:55;;;;;;;17.98;9.57;;;;;;;5.83;100.00;101043.00;5068529;28;20542;-69
2022/12/25 06:24:22;;;;;;;19.50;10.48;;;;;;;5.77;100.00;101053.13;5069515;28;20075;-68
2022/12/25 06:26:48;;;;;;;18.50;9.35;;;;;;;5.71;100.00;101061.44;5049899;28;20020;-68
2022/12/25 06:29:14;;;;;;;19.02;9.00;;;;;;;5.60;100.00;101038.09;5069145;28;20427;-70
2022/12/25 06:31:39;;;;;;;19.67;10.15;;;;;;;5.52;100.00;101029.69;5069524;28;20029;-70
2022/12/25 06:34:04;;;;;;;15.10;9.18;;;;;;;5.61;100.00;101053.09;5067918;28;20028;-69
2022/12/25 06:36:30;;;;;;;18.45;9.73;;;;;;;5.56;100.00;101049.84;5069233;28;20719;-69
2022/12/25 06:38:59;;;;;;;15.10;9.00;;;;;;;5.32;100.00;101016.59;5069735;28;20025;-68
2022/12/25 06:41:26;;;;;;;16.45;8.50;;;;;;;5.48;100.00;101032.59;5068533;28;20381;-69
2022/12/25 06:43:55;;;;;;;14.60;8.30;;;;;;;5.59;100.00;101062.97;5068721;28;20040;-69
2022/12/25 06:46:21;;;;;;;17.08;8.55;;;;;;;5.60;100.00;101054.03;5069038;28;20048;-68
2022/12/25 06:48:48;;;;;;;14.52;8.93;;;;;;;5.63;100.00;101058.31;5068740;28;20047;-69
2022/12/25 06:51:22;;;;;;;16.92;8.68;;;;;;;5.70;100.00;101068.56;5068988;28;20403;-69
2022/12/25 06:53:49;;;;;;;17.45;8.43;;;;;;;5.69;100.00;101063.31;5052653;28;20024;-68
2022/12/25 06:56:17;;;;;;;13.75;7.88;;;;;;;5.62;100.00;101044.19;5069006;28;20115;-68
2022/12/25 06:58:48;;;;;;;17.70;9.23;;;;;;;5.72;100.00;101072.00;5068341;28;20074;-68
2022/12/25 07:01:37;;;;;;;18.00;9.55;;;;;;;5.73;100.00;101086.13;5068279;28;20072;-68
2022/12/25 07:04:05;;;;;;;13.45;7.45;;;;;;;5.54;100.00;101050.84;5052793;28;20095;-70
2022/12/25 07:06:31;;;;;;;15.68;8.90;;;;;;;5.68;100.00;101082.91;5066817;28;20039;-69
2022/12/25 07:08:56;;;;;;;14.52;8.73;;;;;;;5.78;100.00;101100.06;5068568;28;20021;-69
2022/12/25 07:11:22;;;;;;;17.15;8.38;;;;;;;5.82;100.00;101099.84;5068322;28;20043;-69
2022/12/25 07:13:48;;;;;;;22.83;9.02;;;;;;;5.74;100.00;101066.59;5067395;28;20122;-70
2022/12/25 07:16:14;;;;;;;17.50;8.90;;;;;;;5.65;100.00;101045.81;5068611;28;20651;-69
2022/12/25 07:18:40;;;;;;;16.67;9.70;;;;;;;5.94;100.00;101085.00;5068449;28;20027;-69
2022/12/25 07:21:11;;;;;;;16.38;9.43;;;;;;;5.83;100.00;101072.28;5068448;28;20056;-70
2022/12/25 07:23:37;;;;;;;19.00;9.70;;;;;;;5.98;100.00;101090.06;5068319;28;20482;-69
2022/12/25 07:26:03;;;;;;;19.77;9.88;;;;;;;5.82;100.00;101057.25;5068276;28;20163;-69
2022/12/25 07:28:29;;;;;;;22.52;10.00;;;;;;;6.16;100.00;101107.63;5069300;28;20397;-72
2022/12/25 07:31:00;;;;;;;16.52;9.45;;;;;;;6.15;100.00;101103.25;5069907;28;20438;-74
2022/12/25 07:33:26;;;;;;;19.02;10.27;;;;;;;6.37;100.00;101113.53;5070134;28;20040;-73
2022/12/25 07:35:51;;;;;;;21.35;10.13;;;;;;;6.38;100.00;101118.78;5069745;28;20475;-73
2022/12/25 07:38:17;;;;;;;19.55;10.35;;;;;;;6.48;100.00;101119.94;5070862;28;20037;-73
2022/12/25 07:40:45;;;;;;;20.10;9.68;;;;;;;6.54;100.00;101124.06;5073809;28;20024;-74
2022/12/25 07:43:11;;;;;;;17.48;9.15;;;;;;;6.58;100.00;101130.97;5078640;28;20043;-73
2022/12/25 07:45:36;;;;;;;17.10;10.23;;;;;;;6.57;100.00;101106.09;5072882;28;20013;-73
2022/12/25 07:48:02;;;;;;;18.92;10.43;;;;;;;6.75;100.00;101122.81;5073531;28;20111;-73
2022/12/25 07:50:27;;;;;;;20.55;11.00;;;;;;;6.68;100.00;101100.97;5074293;28;20040;-73
2022/12/25 07:52:54;;;;;;;27.50;13.32;;;;;;;7.04;100.00;101128.09;5073972;28;20028;-73
2022/12/25 07:55:19;;;;;;;25.90;12.55;;;;;;;7.18;100.00;101134.41;5074025;28;20064;-72
2022/12/25 07:57:45;;;;;;;27.30;13.60;;;;;;;7.03;100.00;101107.72;5074163;28;20055;-73
2022/12/25 08:00:11;;;;;;;32.38;14.65;;;;;;;7.24;100.00;101131.38;5074273;28;20481;-73
2022/12/25 08:02:36;;;;;;;27.58;14.18;;;;;;;7.29;100.00;101134.63;5073965;28;20025;-73
2022/12/25 08:05:02;;;;;;;34.80;15.43;;;;;;;7.43;100.00;101138.16;5073943;28;20330;-73
2022/12/25 08:07:27;;;;;;;29.75;15.30;;;;;;;7.50;100.00;101154.63;5074072;28;20024;-73
2022/12/25 08:09:52;;;;;;;26.73;12.05;;;;;;;7.63;100.00;101156.47;5073824;28;20128;-72
2022/12/25 08:12:18;;;;;;;18.60;10.80;;;;;;;7.70;100.00;101149.78;5073709;28;20024;-72
2022/12/25 08:14:43;;;;;;;20.23;10.32;;;;;;;7.84;100.00;101167.63;5073600;28;20033;-72
2022/12/25 08:17:09;;;;;;;23.35;11.23;;;;;;;7.94;100.00;101168.75;5072473;28;20031;-72
2022/12/25 08:19:34;;;;;;;20.25;10.73;;;;;;;7.95;100.00;101139.28;5073949;28;20045;-73
2022/12/25 08:22:00;;;;;;;21.80;11.63;;;;;;;8.25;100.00;101171.19;5073693;28;20070;-72
2022/12/25 08:24:25;;;;;;;21.23;11.82;;;;;;;8.14;100.00;101171.88;5073853;28;20024;-73
2022/12/25 08:26:50;;;;;;;23.75;11.40;;;;;;;8.39;100.00;101188.03;5073165;28;20021;-73
2022/12/25 08:29:16;;;;;;;19.38;11.70;;;;;;;8.49;100.00;101188.31;5073404;28;20043;-73
2022/12/25 08:31:42;;;;;;;24.08;12.48;;;;;;;8.69;99.52;101193.19;5072234;28;20031;-73
2022/12/25 08:34:09;;;;;;;22.15;11.27;;;;;;;8.80;98.48;101191.53;5072997;28;20033;-73
2022/12/25 08:36:34;;;;;;;23.10;11.65;;;;;;;8.79;99.13;101199.66;5073279;28;20068;-73
2022/12/25 08:39:00;;;;;;;25.30;11.48;;;;;;;8.81;99.38;101179.88;5071882;28;20109;-73
2022/12/25 08:41:26;;;;;;;19.67;10.65;;;;;;;9.00;98.49;101192.88;5073188;28;20028;-72
2022/12/25 08:43:52;;;;;;;17.77;9.18;;;;;;;9.01;98.44;101186.56;5071527;28;20535;-73
2022/12/25 08:46:17;;;;;;;14.57;6.95;;;;;;;9.11;97.25;101195.69;5073184;28;20037;-72
2022/12/25 08:48:45;;;;;;;15.82;6.88;;;;;;;9.26;95.90;101195.47;5073553;28;20040;-72
2022/12/25 08:51:19;;;;;;;13.48;6.90;;;;;;;9.08;95.81;101170.00;5072888;28;20028;-73
2022/12/25 08:53:47;;;;;;;16.35;6.82;;;;;;;9.36;95.40;101198.41;5073394;28;20074;-73
2022/12/25 08:56:13;;;;;;;11.77;6.40;;;;;;;9.50;93.67;101203.66;5072958;28;20036;-73
2022/12/25 08:58:39;;;;;;;13.88;6.53;;;;;;;9.42;93.90;101179.25;5072930;28;20111;-73
2022/12/25 09:01:05;;;;;;;13.02;6.25;;;;;;;9.50;94.49;101200.97;5067269;28;20138;-72
2022/12/25 09:03:31;;;;;;;10.43;5.95;;;;;;;9.44;95.18;101190.69;5072242;28;20055;-72
2022/12/25 09:06:02;;;;;;;16.33;6.30;;;;;;;9.62;94.60;101201.94;5072641;28;20051;-73
2022/12/25 09:08:27;;;;;;;14.23;6.80;;;;;;;9.70;93.46;101204.97;5072499;28;20456;-74
2022/12/25 09:10:52;;;;;;;14.20;6.40;;;;;;;9.66;92.54;101184.69;5072428;28;20024;-73
2022/12/25 09:13:18;;;;;;;14.93;6.10;;;;;;;9.79;92.24;101196.25;5072442;28;20024;-74
2022/12/25 09:15:43;;;;;;;14.27;6.90;;;;;;;9.80;92.46;101179.22;5072740;28;20028;-74
2022/12/25 09:18:09;;;;;;;12.52;5.68;;;;;;;9.87;92.39;101191.22;5072433;28;20040;-73
2022/12/25 09:20:34;;;;;;;13.82;6.00;;;;;;;9.90;92.19;101186.47;5071491;28;20032;-74
2022/12/25 09:23:00;;;;;;;14.30;6.00;;;;;;;9.90;92.82;101188.34;5072070;28;20017;-73
2022/12/25 09:25:25;;;;;;;11.18;5.47;;;;;;;9.52;92.64;101126.75;5070954;28;20059;-73
2022/12/25 09:27:50;;;;;;;16.00;6.43;;;;;;;9.80;91.00;101147.09;5071243;28;20384;-73
2022/12/25 09:30:17;;;;;;;10.98;5.68;;;;;;;9.92;91.26;101179.22;5072141;28;20057;-72
2022/12/25 09:32:42;;;;;;;15.65;6.60;;;;;;;10.09;88.64;101181.56;5072181;28;20044;-74
2022/12/25 09:35:08;;;;;;;16.05;7.30;;;;;;;10.25;87.75;101200.94;5072207;28;20037;-72
2022/12/25 09:37:33;;;;;;;11.20;6.07;;;;;;;10.23;87.73;101193.97;5072591;28;20075;-73
2022/12/25 09:39:59;;;;;;;12.32;7.00;;;;;;;10.24;87.85;101196.53;5071475;28;20081;-72
2022/12/25 09:42:30;;;;;;;12.50;6.75;;;;;;;10.31;87.49;101188.91;5071126;28;20029;-73
2022/12/25 09:45:09;;;;;;;12.13;6.90;;;;;;;10.28;87.56;101198.03;5071219;28;20021;-73
2022/12/25 09:47:37;;;;;;;11.10;6.38;;;;;;;10.26;88.10;101199.97;5070141;28;20055;-73
2022/12/25 09:50:11;;;;;;;11.27;6.88;;;;;;;10.29;88.54;101201.56;5070070;28;20107;-73
2022/12/25 09:52:44;;;;;;;11.23;6.93;;;;;;;10.27;89.49;101199.00;5072748;28;20818;-72
2022/12/25 09:55:23;;;;;;;20.52;9.07;;;;;;;10.24;89.81;101193.88;5072355;28;20069;-72
2022/12/25 09:57:54;;;;;;;16.20;8.35;;;;;;;10.37;87.82;101189.31;5072706;28;20028;-72
2022/12/25 10:00:22;;;;;;;15.15;8.15;;;;;;;10.25;88.33;101174.13;5056738;28;20090;-73
2022/12/25 10:03:17;;;;;;;18.20;8.82;;;;;;;10.48;86.40;101192.06;5067382;28;20441;-72
2022/12/25 10:06:10;;;;;;;17.35;10.60;;;;;;;10.49;87.38;101199.16;5055335;28;21054;-73
2022/12/25 10:09:04;;;;;;;16.58;8.77;;;;;;;10.47;87.97;101197.53;5050554;28;20032;-73
2022/12/25 10:11:49;;;;;;;22.65;13.25;;;;;;;10.47;87.99;101193.03;5063586;28;20089;-72
2022/12/25 10:14:20;;;;;;;18.80;10.23;;;;;;;10.51;87.49;101189.16;5070070;28;20033;-72
2022/12/25 10:17:10;;;;;;;15.00;7.18;;;;;;;10.62;86.72;101188.38;5070231;28;20032;-72
2022/12/25 10:19:43;;;;;;;12.70;6.78;;;;;;;10.70;85.63;101191.31;5070743;28;20541;-72
2022/12/25 10:22:41;;;;;;;10.73;5.90;;;;;;;10.70;85.42;101192.19;5064506;28;20033;-74
2022/12/25 10:25:24;;;;;;;11.27;5.72;;;;;;;10.49;85.21;101158.94;5066832;28;20097;-73
2022/12/25 10:28:18;;;;;;;10.95;6.45;;;;;;;10.73;86.06;101185.72;5065461;28;20032;-73
2022/12/25 10:30:44;;;;;;;15.25;7.10;;;;;;;10.68;85.44;101161.94;5044602;28;20087;-73
2022/12/25 10:33:12;;;;;;;10.95;5.55;;;;;;;10.78;85.74;101165.66;5061403;28;20477;-72
2022/12/25 10:35:39;;;;;;;11.40;5.53;;;;;;;10.73;85.30;101157.09;5070594;28;20052;-73
2022/12/25 10:38:16;;;;;;;10.18;5.60;;;;;;;10.87;85.61;101164.94;5068835;28;20040;-72
2022/12/25 10:40:56;;;;;;;10.45;5.55;;;;;;;10.91;85.52;101169.13;5069591;28;20533;-68
2022/12/25 10:43:43;;;;;;;11.52;5.97;;;;;;;10.97;85.13;101170.47;5068556;28;20025;-68
2022/12/25 10:46:14;;;;;;;10.02;5.25;;;;;;;10.86;85.10;101135.53;5057029;28;20067;-68
2022/12/25 10:48:45;;;;;;;13.85;6.35;;;;;;;11.07;84.74;101155.38;5067111;28;20049;-68
2022/12/25 10:51:10;;;;;;;11.07;6.45;;;;;;;10.88;84.44;101113.00;5059180;28;20049;-68
2022/12/25 10:53:41;;;;;;;13.55;6.53;;;;;;;11.18;83.26;101148.22;5055765;28;20094;-72
2022/12/25 10:56:15;;;;;;;12.18;5.53;;;;;;;11.12;83.22;101137.94;5051465;28;20456;-69
2022/12/25 10:58:41;;;;;;;10.50;6.28;;;;;;;11.29;83.08;101158.13;5069165;28;20102;-68
2022/12/25 11:01:07;;;;;;;13.40;6.88;;;;;;;11.33;82.71;101154.22;5068918;28;20036;-68
2022/12/25 11:03:36;;;;;;;12.45;6.45;;;;;;;11.27;82.91;101131.41;5068916;28;20316;-68
2022/12/25 11:06:02;;;;;;;15.95;6.53;;;;;;;11.34;82.36;101138.00;5068624;28;20557;-71
2022/12/25 11:08:30;;;;;;;10.43;6.10;;;;;;;11.53;82.48;101164.28;5070236;28;20059;-72
2022/12/25 11:11:10;;;;;;;12.43;6.22;;;;;;;11.62;81.40;101158.22;5069954;28;20040;-72
2022/12/25 11:13:46;;;;;;;12.88;5.75;;;;;;;11.73;80.25;101155.53;5072589;28;20511;-72
2022/12/25 11:16:29;;;;;;;13.15;6.22;;;;;;;11.79;80.13;101159.53;5083364;28;20049;-73
2022/12/25 11:18:56;;;;;;;14.27;5.78;;;;;;;11.78;80.21;101147.09;5069728;28;20029;-72
2022/12/25 11:21:24;;;;;;;12.40;6.05;;;;;;;11.92;78.91;101144.16;5069895;28;20440;-72
2022/12/25 11:24:05;;;;;;;10.20;4.82;;;;;;;11.95;78.68;101143.91;5069352;28;20056;-73
2022/12/25 11:26:45;;;;;;;9.73;5.38;;;;;;;12.03;78.89;101154.91;5053390;28;20500;-73
2022/12/25 11:29:47;;;;;;;10.55;5.20;;;;;;;12.09;77.44;101159.81;5068547;28;20235;-73
2022/12/25 11:32:21;;;;;;;10.23;5.60;;;;;;;11.93;77.35;101127.06;5069488;28;20052;-73
2022/12/25 11:34:49;;;;;;;12.85;5.78;;;;;;;12.15;77.48;101159.31;5068835;28;20039;-72
2022/12/25 11:37:22;;;;;;;12.35;5.38;;;;;;;12.23;76.88;101152.31;5069888;28;20405;-74
2022/12/25 11:39:47;;;;;;;10.57;4.82;;;;;;;12.24;76.79;101147.78;5068576;28;20081;-74
2022/12/25 11:42:13;;;;;;;13.63;4.88;;;;;;;12.28;77.25;101155.47;5069248;28;20052;-75
2022/12/25 11:44:48;;;;;;;9.88;4.72;;;;;;;12.34;75.71;101149.59;5069745;28;20481;-74
2022/12/25 11:47:26;;;;;;;10.43;4.75;;;;;;;12.31;75.48;101130.16;5067635;28;20471;-74
2022/12/25 11:50:03;;;;;;;8.88;5.18;;;;;;;12.38;75.36;101131.38;5065976;28;20028;-74
2022/12/25 11:52:35;;;;;;;8.73;4.38;;;;;;;12.51;74.27;101132.09;5053353;28;20048;-74
2022/12/25 11:55:13;;;;;;;9.07;4.47;;;;;;;12.58;73.56;101126.03;5069649;28;20043;-74
2022/12/25 11:57:40;;;;;;;11.23;3.80;;;;;;;12.59;74.09;101119.69;5069057;28;20543;-70
2022/12/25 12:00:09;;;;;;;10.30;5.28;;;;;;;12.64;74.48;101132.78;5068287;28;20439;-70
2022/12/25 12:02:41;;;;;;;13.13;6.55;;;;;;;12.75;75.56;101136.28;5068163;28;20079;-70
2022/12/25 12:05:22;;;;;;;14.50;6.90;;;;;;;12.75;76.16;101144.34;5068386;28;20065;-70
2022/12/25 12:07:58;;;;;;;12.70;7.43;;;;;;;12.73;77.40;101140.06;5067475;28;20425;-70
2022/12/25 12:10:35;;;;;;;12.82;6.60;;;;;;;12.81;77.41;101151.06;5063079;28;20037;-71
2022/12/25 12:13:13;;;;;;;12.85;7.53;;;;;;;12.77;78.30;101150.44;5057164;28;20086;-71
2022/12/25 12:15:47;;;;;;;16.60;8.30;;;;;;;12.54;78.83;101107.63;5067798;28;20028;-71
2022/12/25 12:18:29;;;;;;;10.27;6.43;;;;;;;12.75;78.28;101147.03;5067671;28;20508;-71
2022/12/25 12:20:57;;;;;;;15.75;7.90;;;;;;;12.75;78.57;101152.44;5068045;28;20085;-71
2022/12/25 12:23:24;;;;;;;16.52;7.90;;;;;;;12.58;79.02;101119.81;5066832;28;20387;-70
2022/12/25 12:25:49;;;;;;;12.75;6.75;;;;;;;12.61;78.23;101117.72;5070748;28;20032;-71
2022/12/25 12:28:43;;;;;;;13.70;6.38;;;;;;;12.73;78.34;101137.34;5071064;28;20040;-70
2022/12/25 12:31:08;;;;;;;11.65;6.60;;;;;;;12.59;78.38;101113.44;5069559;28;20045;-71
2022/12/25 12:33:39;;;;;;;12.73;7.30;;;;;;;12.61;78.71;101116.88;5069992;28;20043;-71
2022/12/25 12:36:05;;;;;;;13.73;7.30;;;;;;;12.67;78.83;101133.34;5071143;28;20112;-71
2022/12/25 12:38:32;;;;;;;11.95;6.60;;;;;;;12.63;78.91;101121.16;5058169;28;20051;-71
2022/12/25 12:41:05;;;;;;;16.13;8.25;;;;;;;12.47;78.57;101103.69;5069588;28;20074;-72
2022/12/25 12:43:42;;;;;;;13.45;7.40;;;;;;;12.52;79.24;101126.56;5070670;28;20039;-72
2022/12/25 12:46:20;;;;;;;13.48;7.30;;;;;;;12.52;78.74;101126.56;5070260;28;20016;-71
2022/12/25 12:48:52;;;;;;;14.77;7.72;;;;;;;12.57;78.82;101143.19;5070057;28;20037;-72
2022/12/25 12:51:38;;;;;;;11.27;7.30;;;;;;;12.57;78.58;101148.56;5070301;28;20028;-72
2022/12/25 12:54:23;;;;;;;11.93;7.30;;;;;;;12.61;78.75;101166.16;5070404;28;20512;-70
2022/12/25 12:57:05;;;;;;;13.05;6.88;;;;;;;12.60;78.76;101161.75;5070570;28;20040;-71
2022/12/25 12:59:36;;;;;;;12.55;6.85;;;;;;;12.60;78.33;101161.75;5070325;28;20094;-71
2022/12/25 13:02:02;;;;;;;13.15;7.15;;;;;;;12.60;78.06;101155.50;5070444;28;20025;-71
2022/12/25 13:04:31;;;;;;;13.85;7.47;;;;;;;12.59;78.23;101157.38;5066174;28;20044;-74
2022/12/25 13:07:22;;;;;;;14.07;7.85;;;;;;;12.61;78.31;101152.69;5070508;28;20024;-75
2022/12/25 13:10:06;;;;;;;14.35;6.97;;;;;;;12.60;77.88;101155.50;5041679;28;20035;-74